Time;durP1;ratioP1;P1;durP2;ratioP2;P2;SDS_P1;SDS_P2;PMS_P1;PMS_P2;Temp;Humidity;BMP_temperature;BMP_pressure;BME280_temperature;BME280_humidity;BME280_pressure;Samples;Min_cycle;Max_cycle;Signal;HPM_P1;HPM_P2
2023/07/30 00:02:21;;;;;;;6.77;6.37;;;20.80;99.90;;;;;;4992679;28;20834;-64
2023/07/30 00:04:47;;;;;;;6.80;6.30;;;20.70;99.90;;;;;;4992679;28;20407;-64
2023/07/30 00:07:13;;;;;;;6.53;6.03;;;20.70;99.90;;;;;;4992858;28;20647;-64
2023/07/30 00:09:39;;;;;;;7.00;6.50;;;20.70;99.90;;;;;;4991633;28;20466;-64
2023/07/30 00:12:06;;;;;;;6.37;5.97;;;20.60;99.90;;;;;;4992002;28;20493;-65
2023/07/30 00:14:32;;;;;;;7.50;7.00;;;20.60;99.90;;;;;;4992749;28;20851;-64
2023/07/30 00:16:58;;;;;;;6.37;5.90;;;20.60;99.90;;;;;;4993113;28;20489;-64
2023/07/30 00:19:26;;;;;;;6.70;6.30;;;20.50;99.90;;;;;;4992753;28;20205;-64
2023/07/30 00:21:52;;;;;;;6.20;5.90;;;20.50;99.90;;;;;;4987491;28;20231;-64
2023/07/30 00:24:17;;;;;;;6.37;5.87;;;20.40;99.90;;;;;;4982425;28;20423;-64
2023/07/30 00:26:43;;;;;;;6.30;5.80;;;20.40;99.90;;;;;;4991751;28;20172;-64
2023/07/30 00:29:09;;;;;;;6.30;5.90;;;20.40;99.90;;;;;;4989547;28;20181;-64
2023/07/30 00:31:34;;;;;;;6.93;6.33;;;20.40;99.90;;;;;;4991556;28;20237;-64
2023/07/30 00:34:00;;;;;;;6.83;6.33;;;20.30;99.90;;;;;;4992277;28;20187;-64
2023/07/30 00:36:26;;;;;;;7.20;6.70;;;20.30;99.90;;;;;;4992692;28;20216;-60
2023/07/30 00:38:52;;;;;;;6.77;6.43;;;20.30;99.90;;;;;;4991926;28;20435;-64
2023/07/30 00:41:18;;;;;;;6.30;5.90;;;20.20;99.90;;;;;;4992120;28;20528;-64
2023/07/30 00:43:45;;;;;;;7.33;6.60;;;20.20;99.90;;;;;;4992233;28;20711;-64
2023/07/30 00:46:11;;;;;;;6.50;5.93;;;20.20;99.90;;;;;;4992373;28;20521;-65
2023/07/30 00:48:37;;;;;;;6.83;6.33;;;20.10;99.90;;;;;;4991401;28;20412;-63
2023/07/30 00:51:04;;;;;;;7.30;6.70;;;20.10;99.90;;;;;;4974757;28;20470;-64
2023/07/30 00:53:30;;;;;;;7.00;6.50;;;20.00;99.90;;;;;;4984085;28;20786;-60
2023/07/30 00:55:56;;;;;;;7.43;6.73;;;20.00;99.90;;;;;;4973903;28;20400;-64
2023/07/30 00:58:23;;;;;;;6.67;6.27;;;20.00;99.90;;;;;;4992229;28;20414;-64
2023/07/30 01:00:51;;;;;;;7.03;6.60;;;20.00;99.90;;;;;;4991529;28;20411;-64
2023/07/30 01:03:17;;;;;;;6.57;6.00;;;20.00;99.90;;;;;;4992530;28;20415;-63
2023/07/30 01:05:44;;;;;;;6.63;6.13;;;19.90;99.90;;;;;;4990184;28;20509;-64
2023/07/30 01:08:10;;;;;;;7.47;6.77;;;19.90;99.90;;;;;;4987692;28;20420;-65
2023/07/30 01:10:38;;;;;;;7.13;6.73;;;19.90;99.90;;;;;;4972508;28;20454;-65
2023/07/30 01:13:04;;;;;;;7.33;6.83;;;19.90;99.90;;;;;;4988028;28;20171;-64
2023/07/30 01:15:31;;;;;;;7.77;7.17;;;19.80;99.90;;;;;;4993951;28;20431;-62
2023/07/30 01:17:57;;;;;;;7.37;6.77;;;19.80;99.90;;;;;;4995437;28;20414;-64
2023/07/30 01:20:23;;;;;;;7.13;6.67;;;19.80;99.90;;;;;;4995339;28;20418;-65
2023/07/30 01:22:48;;;;;;;6.80;6.40;;;19.80;99.90;;;;;;4993526;28;20237;-63
2023/07/30 01:25:15;;;;;;;7.37;6.87;;;19.70;99.90;;;;;;4996424;28;20171;-64
2023/07/30 01:27:55;;;;;;;7.47;7.00;;;19.70;99.90;;;;;;4995010;28;20214;-64
2023/07/30 01:30:30;;;;;;;7.27;6.87;;;19.60;99.90;;;;;;4995588;28;20457;-64
2023/07/30 01:32:59;;;;;;;7.10;6.60;;;19.60;99.90;;;;;;4995875;28;20457;-64
2023/07/30 01:35:27;;;;;;;6.67;6.30;;;19.50;99.90;;;;;;4994653;28;20597;-64
2023/07/30 01:37:54;;;;;;;6.90;6.50;;;19.50;99.90;;;;;;4991966;28;20467;-64
2023/07/30 01:40:22;;;;;;;7.20;6.80;;;19.50;99.90;;;;;;4975720;28;20428;-63
2023/07/30 01:42:49;;;;;;;7.13;6.73;;;19.50;99.90;;;;;;4976996;28;21149;-64
2023/07/30 01:45:15;;;;;;;7.30;6.83;;;19.50;99.90;;;;;;4994684;28;20472;-64
2023/07/30 01:47:41;;;;;;;7.03;6.63;;;19.50;99.90;;;;;;4994936;28;20505;-64
2023/07/30 01:50:07;;;;;;;6.60;6.30;;;19.50;99.90;;;;;;4994275;28;20213;-64
2023/07/30 01:52:33;;;;;;;6.67;6.30;;;19.50;99.90;;;;;;4992844;28;20270;-63
2023/07/30 01:55:00;;;;;;;6.83;6.27;;;19.50;99.90;;;;;;4995561;28;20422;-64
2023/07/30 01:57:27;;;;;;;6.80;6.40;;;19.50;99.90;;;;;;4994199;28;20869;-61
2023/07/30 01:59:53;;;;;;;7.20;6.70;;;19.50;99.90;;;;;;4993409;28;20430;-63
2023/07/30 02:02:19;;;;;;;8.90;6.60;;;19.50;99.90;;;;;;4994487;28;20233;-64
2023/07/30 02:04:47;;;;;;;6.83;6.40;;;19.50;99.90;;;;;;4994231;28;20190;-64
2023/07/30 02:07:13;;;;;;;7.50;6.90;;;19.50;99.90;;;;;;4995516;28;20403;-64
2023/07/30 02:09:38;;;;;;;6.53;6.00;;;19.40;99.90;;;;;;4994138;28;20217;-64
2023/07/30 02:12:05;;;;;;;7.57;7.07;;;19.40;99.90;;;;;;4995189;28;20223;-64
2023/07/30 02:14:30;;;;;;;7.10;6.70;;;19.40;99.90;;;;;;4994717;28;20242;-61
2023/07/30 02:16:56;;;;;;;7.00;6.53;;;19.40;99.90;;;;;;4992905;28;20785;-62
2023/07/30 02:19:22;;;;;;;7.13;6.70;;;19.40;99.90;;;;;;4992887;28;20202;-62
2023/07/30 02:21:47;;;;;;;7.40;6.90;;;19.40;99.90;;;;;;4993696;28;20339;-64
2023/07/30 02:24:13;;;;;;;7.63;7.03;;;19.40;99.90;;;;;;4989555;28;20549;-62
2023/07/30 02:26:39;;;;;;;7.33;6.93;;;19.40;99.90;;;;;;4992267;28;20659;-63
2023/07/30 02:29:05;;;;;;;7.90;7.40;;;19.40;99.90;;;;;;4989759;28;20189;-63
2023/07/30 02:31:31;;;;;;;7.33;6.83;;;19.40;99.90;;;;;;4992900;28;20998;-62
2023/07/30 02:33:57;;;;;;;8.90;7.00;;;19.40;99.90;;;;;;4994849;28;20434;-64
2023/07/30 02:36:23;;;;;;;7.53;6.93;;;19.40;99.90;;;;;;4994966;28;20451;-64
2023/07/30 02:38:49;;;;;;;7.40;6.90;;;19.40;99.90;;;;;;4993677;28;20188;-64
2023/07/30 02:41:15;;;;;;;7.80;7.10;;;19.40;99.90;;;;;;4993157;28;20419;-63
2023/07/30 02:43:40;;;;;;;7.53;7.13;;;19.40;99.90;;;;;;4991710;28;20179;-63
2023/07/30 02:46:06;;;;;;;7.23;6.80;;;19.40;99.90;;;;;;4969241;28;20631;-64
2023/07/30 02:48:32;;;;;;;7.97;7.37;;;19.40;99.90;;;;;;4994131;28;20171;-63
2023/07/30 02:50:58;;;;;;;7.80;7.30;;;19.30;99.90;;;;;;4992910;28;20455;-64
2023/07/30 02:53:24;;;;;;;7.27;6.77;;;19.30;99.90;;;;;;4995202;28;20879;-64
2023/07/30 02:55:50;;;;;;;6.77;6.40;;;19.30;99.90;;;;;;4993310;28;20696;-64
2023/07/30 02:58:15;;;;;;;7.67;7.07;;;19.20;99.90;;;;;;4989295;28;20765;-64
2023/07/30 03:00:41;;;;;;;7.57;7.10;;;19.20;99.90;;;;;;4973265;28;20234;-64
2023/07/30 03:03:09;;;;;;;7.67;7.13;;;19.20;99.90;;;;;;4976571;28;20255;-64
2023/07/30 03:05:35;;;;;;;7.93;7.23;;;19.20;99.90;;;;;;4986901;28;20518;-64
2023/07/30 03:08:01;;;;;;;7.63;7.13;;;19.10;99.90;;;;;;4993542;28;20187;-64
2023/07/30 03:10:27;;;;;;;7.27;6.73;;;19.10;99.90;;;;;;4993768;28;20757;-61
2023/07/30 03:12:52;;;;;;;6.87;6.57;;;19.10;99.90;;;;;;4993461;28;20176;-65
2023/07/30 03:15:18;;;;;;;6.60;6.27;;;19.10;99.90;;;;;;4994326;28;20442;-64
2023/07/30 03:17:44;;;;;;;7.40;6.90;;;19.00;99.90;;;;;;4992136;28;20230;-64
2023/07/30 03:20:10;;;;;;;7.37;6.70;;;19.00;99.90;;;;;;4993781;28;20715;-64
2023/07/30 03:22:36;;;;;;;6.80;6.50;;;18.90;99.90;;;;;;4993378;28;20262;-63
2023/07/30 03:25:01;;;;;;;6.37;6.00;;;18.90;99.90;;;;;;4993427;28;20502;-64
2023/07/30 03:27:27;;;;;;;7.17;6.73;;;18.90;99.90;;;;;;4993742;28;20546;-61
2023/07/30 03:29:55;;;;;;;7.50;6.10;;;18.90;99.90;;;;;;4993168;28;20254;-64
2023/07/30 03:32:21;;;;;;;6.30;5.90;;;18.90;99.90;;;;;;4994336;28;20453;-64
2023/07/30 03:34:46;;;;;;;7.30;6.70;;;18.90;99.90;;;;;;4991687;28;20191;-64
2023/07/30 03:37:12;;;;;;;6.90;6.30;;;18.90;99.90;;;;;;4993243;28;20687;-64
2023/07/30 03:39:38;;;;;;;7.07;6.57;;;18.90;99.90;;;;;;4992864;28;20176;-64
2023/07/30 03:42:04;;;;;;;6.87;6.30;;;18.90;99.90;;;;;;4993281;28;20179;-64
2023/07/30 03:44:29;;;;;;;6.97;6.47;;;18.90;99.90;;;;;;4993320;28;20172;-61
2023/07/30 03:46:55;;;;;;;6.87;6.23;;;19.00;99.90;;;;;;4992184;28;20438;-65
2023/07/30 03:49:21;;;;;;;6.40;5.90;;;19.00;99.90;;;;;;4993085;28;20192;-64
2023/07/30 03:51:47;;;;;;;6.90;6.50;;;19.00;99.90;;;;;;4992790;28;20180;-64
2023/07/30 03:54:13;;;;;;;6.77;6.37;;;19.10;99.90;;;;;;4991789;28;20255;-64
2023/07/30 03:56:39;;;;;;;6.50;6.20;;;19.10;99.90;;;;;;4992518;28;20506;-64
2023/07/30 03:59:04;;;;;;;6.60;6.10;;;19.10;99.90;;;;;;4993714;28;20251;-64
2023/07/30 04:01:30;;;;;;;7.03;6.53;;;19.00;99.90;;;;;;4992848;28;20190;-61
2023/07/30 04:03:56;;;;;;;7.13;6.50;;;19.10;99.90;;;;;;4992413;28;20180;-64
2023/07/30 04:06:22;;;;;;;7.70;6.90;;;19.10;99.90;;;;;;4991616;28;20184;-65
2023/07/30 04:08:47;;;;;;;6.80;6.30;;;19.10;99.90;;;;;;4989972;28;20187;-63
2023/07/30 04:11:13;;;;;;;8.70;7.80;;;19.10;99.90;;;;;;4993256;28;20319;-64
2023/07/30 04:13:40;;;;;;;6.23;5.70;;;19.10;99.90;;;;;;4983844;28;20182;-63
2023/07/30 04:16:06;;;;;;;6.70;6.30;;;19.10;99.90;;;;;;4993079;28;20278;-64
2023/07/30 04:18:32;;;;;;;6.60;6.20;;;19.20;99.90;;;;;;4993094;28;20510;-60
2023/07/30 04:20:57;;;;;;;8.10;7.30;;;19.20;99.90;;;;;;4983856;28;20187;-63
2023/07/30 04:23:23;;;;;;;6.70;6.30;;;19.20;99.90;;;;;;4992032;28;20182;-64
2023/07/30 04:25:50;;;;;;;6.83;6.43;;;19.10;99.90;;;;;;4992051;28;20186;-64
2023/07/30 04:28:16;;;;;;;6.40;6.00;;;19.10;99.90;;;;;;4992072;28;20210;-65
2023/07/30 04:30:42;;;;;;;7.37;6.43;;;19.20;99.90;;;;;;4990636;28;20477;-64
2023/07/30 04:33:07;;;;;;;7.23;6.47;;;19.10;99.90;;;;;;4992741;28;20418;-67
2023/07/30 04:35:33;;;;;;;7.17;6.43;;;19.20;99.90;;;;;;4989914;28;20335;-66
2023/07/30 04:37:59;;;;;;;6.83;6.43;;;19.10;99.90;;;;;;4993236;28;20172;-66
2023/07/30 04:40:25;;;;;;;6.23;5.83;;;19.10;99.90;;;;;;4992168;28;20682;-66
2023/07/30 04:42:50;;;;;;;8.90;6.57;;;19.10;99.90;;;;;;4988956;28;20340;-66
2023/07/30 04:45:16;;;;;;;7.20;6.70;;;19.20;99.90;;;;;;4977791;28;20186;-67
2023/07/30 04:47:43;;;;;;;6.93;6.37;;;19.20;99.90;;;;;;4992749;28;20647;-66
2023/07/30 04:50:08;;;;;;;7.83;7.07;;;19.20;99.90;;;;;;4992903;28;20203;-67
2023/07/30 04:52:34;;;;;;;8.87;7.60;;;19.20;99.90;;;;;;4992578;28;20407;-66
2023/07/30 04:55:00;;;;;;;7.50;6.90;;;19.20;99.90;;;;;;4993045;28;20167;-66
2023/07/30 04:57:26;;;;;;;7.03;6.53;;;19.20;99.90;;;;;;4992336;28;20536;-66
2023/07/30 04:59:52;;;;;;;8.27;7.57;;;19.20;99.90;;;;;;4990929;28;20966;-66
2023/07/30 05:02:18;;;;;;;6.90;6.30;;;19.20;99.90;;;;;;4985926;28;20484;-66
2023/07/30 05:04:43;;;;;;;7.03;6.40;;;19.20;99.90;;;;;;4989228;28;20180;-66
2023/07/30 05:07:09;;;;;;;7.40;6.40;;;19.20;99.90;;;;;;4973547;28;20612;-66
2023/07/30 05:09:35;;;;;;;7.00;6.50;;;19.20;99.90;;;;;;4972966;28;20204;-66
2023/07/30 05:12:00;;;;;;;7.17;5.93;;;19.20;99.90;;;;;;4973757;28;20227;-67
2023/07/30 05:14:26;;;;;;;6.90;6.50;;;19.30;99.90;;;;;;4973616;28;20274;-67
2023/07/30 05:16:52;;;;;;;7.80;7.30;;;19.30;99.90;;;;;;4982702;28;20643;-67
2023/07/30 05:19:18;;;;;;;7.80;7.10;;;19.30;99.90;;;;;;4992093;28;20514;-67
2023/07/30 05:21:44;;;;;;;6.90;6.27;;;19.30;99.90;;;;;;4987630;28;20583;-67
2023/07/30 05:24:09;;;;;;;6.37;5.80;;;19.30;99.90;;;;;;4992457;28;20172;-66
2023/07/30 05:26:35;;;;;;;7.27;6.57;;;19.30;99.90;;;;;;4992254;28;20171;-65
2023/07/30 05:29:01;;;;;;;6.17;5.63;;;19.30;99.90;;;;;;4992001;28;20182;-67
2023/07/30 05:31:26;;;;;;;6.33;5.83;;;19.20;99.90;;;;;;4985291;28;20216;-67
2023/07/30 05:33:52;;;;;;;7.13;6.47;;;19.30;99.90;;;;;;4990025;28;20633;-67
2023/07/30 05:36:18;;;;;;;6.00;5.50;;;19.20;99.90;;;;;;4991524;28;20254;-64
2023/07/30 05:38:44;;;;;;;6.50;6.00;;;19.20;99.90;;;;;;4991928;28;20438;-64
2023/07/30 05:41:09;;;;;;;8.98;8.18;;;19.30;99.90;;;;;;4991415;28;20495;-64
2023/07/30 05:43:35;;;;;;;8.47;7.23;;;19.30;99.90;;;;;;4991496;28;20176;-60
2023/07/30 05:46:01;;;;;;;7.20;6.50;;;19.30;99.90;;;;;;4991639;28;20532;-65
2023/07/30 05:48:27;;;;;;;6.77;6.10;;;19.30;99.90;;;;;;4992557;28;20659;-65
2023/07/30 05:50:52;;;;;;;6.80;6.13;;;19.40;99.90;;;;;;4992120;28;20546;-64
2023/07/30 05:53:18;;;;;;;6.80;5.50;;;19.40;99.90;;;;;;4992128;28;20191;-65
2023/07/30 05:55:44;;;;;;;10.13;9.20;;;19.40;99.90;;;;;;4991950;28;20262;-64
2023/07/30 05:58:09;;;;;;;7.37;6.70;;;19.50;99.90;;;;;;4988961;28;20205;-64
2023/07/30 06:00:35;;;;;;;6.37;5.77;;;19.40;99.90;;;;;;4988088;28;20595;-61
2023/07/30 06:03:01;;;;;;;6.10;5.60;;;19.30;99.90;;;;;;4976547;28;20187;-64
2023/07/30 06:05:27;;;;;;;5.67;5.10;;;19.30;99.90;;;;;;4976820;28;20400;-65
2023/07/30 06:07:53;;;;;;;6.23;5.63;;;19.30;99.90;;;;;;4976136;28;20750;-64
2023/07/30 06:10:18;;;;;;;6.97;5.60;;;19.20;99.90;;;;;;4979657;28;20200;-65
2023/07/30 06:12:44;;;;;;;6.10;5.70;;;19.10;99.90;;;;;;4994860;28;20184;-64
2023/07/30 06:15:10;;;;;;;6.60;6.00;;;19.20;99.90;;;;;;4995857;28;20183;-65
2023/07/30 06:17:36;;;;;;;5.70;5.20;;;19.10;99.90;;;;;;4994772;28;20638;-64
2023/07/30 06:20:03;;;;;;;9.00;5.90;;;19.20;99.90;;;;;;4995626;28;20922;-64
2023/07/30 06:22:29;;;;;;;5.97;5.47;;;19.10;99.90;;;;;;4995514;28;20431;-65
2023/07/30 06:24:54;;;;;;;7.10;5.10;;;19.20;99.90;;;;;;4993518;28;20586;-64
2023/07/30 06:27:20;;;;;;;6.33;5.43;;;19.10;99.90;;;;;;4993637;28;20270;-64
2023/07/30 06:29:47;;;;;;;6.50;5.97;;;19.10;99.90;;;;;;4995082;28;20560;-65
2023/07/30 06:32:12;;;;;;;4.90;4.60;;;19.10;99.90;;;;;;4978848;28;20438;-64
2023/07/30 06:34:38;;;;;;;5.50;5.10;;;19.10;99.90;;;;;;4985536;28;20428;-62
2023/07/30 06:37:04;;;;;;;5.83;5.33;;;19.10;99.90;;;;;;4976314;28;20223;-64
2023/07/30 06:39:29;;;;;;;5.83;5.20;;;19.10;99.90;;;;;;4986416;28;20242;-64
2023/07/30 06:41:55;;;;;;;5.37;4.90;;;19.10;99.90;;;;;;4994594;28;20183;-64
2023/07/30 06:44:24;;;;;;;5.13;4.83;;;19.10;99.90;;;;;;4995429;28;20179;-64
2023/07/30 06:46:50;;;;;;;5.70;4.83;;;19.10;99.90;;;;;;4993463;28;20271;-64
2023/07/30 06:49:15;;;;;;;10.10;5.80;;;19.20;99.90;;;;;;4994406;28;20526;-65
2023/07/30 06:51:41;;;;;;;6.87;5.37;;;19.20;99.90;;;;;;4994160;28;20262;-64
2023/07/30 06:54:07;;;;;;;5.33;4.93;;;19.20;99.90;;;;;;4993985;28;20230;-65
2023/07/30 06:56:33;;;;;;;5.43;5.03;;;19.30;99.90;;;;;;4993362;28;20188;-65
2023/07/30 06:58:58;;;;;;;5.70;5.13;;;19.30;99.90;;;;;;4994478;28;20509;-65
2023/07/30 07:01:24;;;;;;;5.50;5.10;;;19.20;99.90;;;;;;4995103;28;20187;-65
2023/07/30 07:03:50;;;;;;;5.27;4.93;;;19.30;99.90;;;;;;4994336;28;20183;-64
2023/07/30 07:06:15;;;;;;;6.20;5.57;;;19.30;99.90;;;;;;4994721;28;20183;-65
2023/07/30 07:08:41;;;;;;;6.93;6.33;;;19.30;99.90;;;;;;4994334;28;20635;-64
2023/07/30 07:11:07;;;;;;;7.60;6.27;;;19.30;99.90;;;;;;4993148;28;20214;-64
2023/07/30 07:13:33;;;;;;;6.20;5.70;;;19.30;99.90;;;;;;4992913;28;20628;-65
2023/07/30 07:15:58;;;;;;;5.30;5.00;;;19.30;99.90;;;;;;4993525;28;20182;-64
2023/07/30 07:18:24;;;;;;;5.70;5.20;;;19.30;99.90;;;;;;4994765;28;20186;-65
2023/07/30 07:20:50;;;;;;;5.77;5.13;;;19.40;99.90;;;;;;4993345;28;20168;-65
2023/07/30 07:23:15;;;;;;;6.90;5.63;;;19.40;99.90;;;;;;4994854;28;20540;-65
2023/07/30 07:25:41;;;;;;;5.60;5.10;;;19.30;99.90;;;;;;4991631;28;20183;-61
2023/07/30 07:28:07;;;;;;;6.70;5.47;;;19.30;99.90;;;;;;4994059;28;20226;-64
2023/07/30 07:30:36;;;;;;;10.80;5.97;;;19.20;99.90;;;;;;4994502;28;20208;-64
2023/07/30 07:33:02;;;;;;;9.33;5.87;;;19.20;99.90;;;;;;4987577;28;20688;-64
2023/07/30 07:35:28;;;;;;;8.97;5.70;;;19.20;99.90;;;;;;4977512;28;20549;-71
2023/07/30 07:37:53;;;;;;;6.90;6.20;;;19.30;99.90;;;;;;4984069;28;20442;-71
2023/07/30 07:40:19;;;;;;;7.27;5.70;;;19.20;99.90;;;;;;4991875;28;20187;-71
2023/07/30 07:42:45;;;;;;;6.00;5.40;;;19.10;99.90;;;;;;4993510;28;20190;-72
2023/07/30 07:45:10;;;;;;;6.10;5.50;;;19.20;99.90;;;;;;4993734;28;20202;-71
2023/07/30 07:47:36;;;;;;;7.00;5.60;;;19.20;99.90;;;;;;4993217;28;20641;-71
2023/07/30 07:50:04;;;;;;;10.40;6.17;;;19.20;99.90;;;;;;4993538;28;20207;-72
2023/07/30 07:52:29;;;;;;;6.90;6.30;;;19.40;99.90;;;;;;4992386;28;20462;-70
2023/07/30 07:54:55;;;;;;;7.63;6.93;;;19.30;99.90;;;;;;4993104;28;20811;-72
2023/07/30 07:57:21;;;;;;;6.43;5.80;;;19.40;99.90;;;;;;4993936;28;20175;-67
2023/07/30 07:59:47;;;;;;;6.50;5.90;;;19.50;99.90;;;;;;4993321;28;20189;-69
2023/07/30 08:02:14;;;;;;;7.63;6.07;;;19.50;99.90;;;;;;4992452;28;20505;-68
2023/07/30 08:04:40;;;;;;;6.03;5.63;;;19.70;99.90;;;;;;4990747;28;20423;-68
2023/07/30 08:07:05;;;;;;;8.30;6.57;;;19.70;99.90;;;;;;4993509;28;20539;-69
2023/07/30 08:09:31;;;;;;;7.27;6.67;;;19.80;99.90;;;;;;4993875;28;20412;-70
2023/07/30 08:11:59;;;;;;;7.27;6.53;;;19.80;99.90;;;;;;4992830;28;20179;-68
2023/07/30 08:14:24;;;;;;;7.70;6.90;;;19.90;99.90;;;;;;4993548;28;20763;-68
2023/07/30 08:16:52;;;;;;;7.20;6.57;;;19.90;99.90;;;;;;4992946;28;20433;-68
2023/07/30 08:19:18;;;;;;;7.23;6.47;;;20.00;99.90;;;;;;4993012;28;20553;-69
2023/07/30 08:21:44;;;;;;;7.93;7.33;;;20.10;99.90;;;;;;4992035;28;20427;-63
2023/07/30 08:24:10;;;;;;;7.30;6.70;;;20.20;99.90;;;;;;4991946;28;20206;-68
2023/07/30 08:26:35;;;;;;;7.10;6.40;;;20.20;99.90;;;;;;4992229;28;20451;-68
2023/07/30 08:29:01;;;;;;;7.30;6.60;;;20.30;99.90;;;;;;4992223;28;20534;-68
2023/07/30 08:31:27;;;;;;;7.60;6.90;;;20.40;99.90;;;;;;4993147;28;20222;-68
2023/07/30 08:33:53;;;;;;;8.50;7.80;;;20.40;99.90;;;;;;4992774;28;20262;-68
2023/07/30 08:36:19;;;;;;;6.77;6.20;;;20.50;99.90;;;;;;4987579;28;20227;-69
2023/07/30 08:38:45;;;;;;;6.37;5.97;;;20.50;99.90;;;;;;4992996;28;20182;-68
2023/07/30 08:41:10;;;;;;;9.53;6.47;;;20.50;99.90;;;;;;4993264;28;20188;-67
2023/07/30 08:43:36;;;;;;;6.77;5.60;;;20.50;99.90;;;;;;4992726;28;20510;-68
2023/07/30 08:46:03;;;;;;;6.83;6.27;;;20.60;99.90;;;;;;4988027;28;20175;-66
2023/07/30 08:48:28;;;;;;;212.50;186.33;;;20.50;99.90;;;;;;4990349;28;20210;-67
2023/07/30 08:50:57;;;;;;;90.40;66.43;;;20.50;99.90;;;;;;4991528;28;20950;-68
2023/07/30 08:53:26;;;;;;;86.97;66.70;;;20.60;99.90;;;;;;4989542;28;20179;-67
2023/07/30 08:55:55;;;;;;;16.67;13.73;;;20.60;99.90;;;;;;4992223;28;20407;-67
2023/07/30 08:58:26;;;;;;;146.00;130.87;;;20.70;99.90;;;;;;4991810;28;20415;-68
2023/07/30 09:00:54;;;;;;;26.53;20.50;;;20.70;99.90;;;;;;4992683;28;20418;-67
2023/07/30 09:03:22;;;;;;;18.90;17.10;;;20.70;99.90;;;;;;4993292;28;20418;-68
2023/07/30 09:05:48;;;;;;;9.33;7.20;;;20.70;99.90;;;;;;4991179;28;20422;-62
2023/07/30 09:08:15;;;;;;;9.77;8.83;;;20.70;99.90;;;;;;4991383;28;20434;-68
2023/07/30 09:10:41;;;;;;;6.33;5.87;;;20.80;99.90;;;;;;4991856;28;20450;-67
2023/07/30 09:13:07;;;;;;;7.50;6.70;;;20.90;99.90;;;;;;4991736;28;20927;-68
2023/07/30 09:15:39;;;;;;;7.20;6.50;;;21.00;99.90;;;;;;4992646;28;20198;-69
2023/07/30 09:18:05;;;;;;;7.53;5.80;;;21.00;99.90;;;;;;4992079;28;20540;-70
2023/07/30 09:20:42;;;;;;;11.03;8.30;;;21.00;99.90;;;;;;4992981;28;20823;-69
2023/07/30 09:23:08;;;;;;;12.47;11.23;;;21.00;99.90;;;;;;4991347;28;20642;-68
2023/07/30 09:25:35;;;;;;;12.50;7.47;;;21.10;99.90;;;;;;4992082;28;20427;-69
2023/07/30 09:28:02;;;;;;;5.83;5.43;;;21.00;99.90;;;;;;4990962;28;20832;-69
2023/07/30 09:30:28;;;;;;;6.37;5.77;;;21.00;99.90;;;;;;4992568;28;20955;-69
2023/07/30 09:32:55;;;;;;;7.13;6.50;;;21.10;99.90;;;;;;4990758;28;20411;-67
2023/07/30 09:35:24;;;;;;;7.47;6.60;;;21.20;99.90;;;;;;4992160;28;20948;-71
2023/07/30 09:37:57;;;;;;;7.43;6.73;;;21.20;99.90;;;;;;4991674;28;20486;-67
2023/07/30 09:40:35;;;;;;;5.90;5.30;;;21.30;99.90;;;;;;4995010;28;20466;-67
2023/07/30 09:43:05;;;;;;;18.90;16.90;;;21.40;99.90;;;;;;4996497;28;20509;-67
2023/07/30 09:45:35;;;;;;;25.83;21.03;;;21.50;99.90;;;;;;4994581;28;20942;-69
2023/07/30 09:48:04;;;;;;;7.47;6.63;;;21.50;99.90;;;;;;4992631;28;20434;-68
2023/07/30 09:50:30;;;;;;;9.40;7.47;;;21.60;99.90;;;;;;4995558;28;20450;-67
2023/07/30 09:52:58;;;;;;;11.20;7.83;;;21.70;99.90;;;;;;4993370;28;20437;-68
2023/07/30 09:55:24;;;;;;;8.33;7.23;;;21.80;99.90;;;;;;4993909;28;20458;-68
2023/07/30 09:57:50;;;;;;;5.90;5.30;;;21.80;99.90;;;;;;4994856;28;20935;-62
2023/07/30 10:00:15;;;;;;;9.13;7.03;;;21.80;99.90;;;;;;4989365;28;20267;-67
2023/07/30 10:02:46;;;;;;;7.77;6.97;;;21.80;99.90;;;;;;4990809;28;20176;-66
2023/07/30 10:05:16;;;;;;;8.97;8.10;;;21.90;99.90;;;;;;4995474;28;20195;-68
2023/07/30 10:07:49;;;;;;;7.37;6.00;;;21.80;99.90;;;;;;4995501;28;20473;-67
2023/07/30 10:10:14;;;;;;;9.20;6.23;;;21.90;99.90;;;;;;4992369;28;20482;-68
2023/07/30 10:12:43;;;;;;;6.40;5.20;;;22.00;99.90;;;;;;4993917;28;20434;-68
2023/07/30 10:15:09;;;;;;;6.40;5.80;;;22.20;99.90;;;;;;4990757;28;20290;-67
2023/07/30 10:17:35;;;;;;;7.10;5.40;;;22.30;99.90;;;;;;4992508;28;20469;-68
2023/07/30 10:20:23;;;;;;;6.67;5.40;;;22.60;99.90;;;;;;4995334;28;20439;-68
2023/07/30 10:22:54;;;;;;;3.73;3.50;;;22.80;99.90;;;;;;4992444;28;20184;-69
2023/07/30 10:25:47;;;;;;;5.43;4.90;;;23.00;99.90;;;;;;4995858;28;20407;-69
2023/07/30 10:28:35;;;;;;;6.00;5.27;;;23.10;99.90;;;;;;4990186;28;20427;-69
2023/07/30 10:31:04;;;;;;;4.63;4.20;;;23.00;99.90;;;;;;4994890;28;20493;-68
2023/07/30 10:33:48;;;;;;;16.57;13.40;;;23.00;99.90;;;;;;4995192;28;20751;-69
2023/07/30 10:36:16;;;;;;;15.60;13.27;;;23.20;99.90;;;;;;4993958;28;20462;-69
2023/07/30 10:38:42;;;;;;;8.20;7.40;;;23.30;99.90;;;;;;4994519;28;20427;-67
2023/07/30 10:41:10;;;;;;;5.13;4.53;;;23.50;99.90;;;;;;4994150;28;20756;-69
2023/07/30 10:43:41;;;;;;;6.67;4.90;;;23.60;98.80;;;;;;4990922;28;20183;-68
2023/07/30 10:46:09;;;;;;;3.63;3.33;;;23.60;97.40;;;;;;4988589;28;20470;-68
2023/07/30 10:48:37;;;;;;;5.80;5.20;;;23.60;95.90;;;;;;4991597;28;20489;-68
2023/07/30 10:51:08;;;;;;;3.83;3.53;;;23.70;99.80;;;;;;4985984;28;20451;-67
2023/07/30 10:53:37;;;;;;;5.23;4.83;;;23.70;97.70;;;;;;4990841;28;20431;-69
2023/07/30 10:56:04;;;;;;;4.47;4.00;;;23.70;96.10;;;;;;4987867;28;20441;-68
2023/07/30 10:58:31;;;;;;;7.50;4.80;;;23.70;95.80;;;;;;4987600;28;20494;-68
2023/07/30 11:00:57;;;;;;;7.70;5.53;;;23.80;95.80;;;;;;4987999;28;20434;-68
2023/07/30 11:03:26;;;;;;;4.97;4.57;;;23.80;95.00;;;;;;4994010;28;20442;-68
2023/07/30 11:05:53;;;;;;;3.70;3.33;;;23.90;97.80;;;;;;4993386;28;20418;-67
2023/07/30 11:08:19;;;;;;;4.20;3.80;;;23.90;95.50;;;;;;4994160;28;20419;-68
2023/07/30 11:10:49;;;;;;;6.63;3.73;;;23.80;95.30;;;;;;4994000;28;20513;-68
2023/07/30 11:13:14;;;;;;;4.13;3.83;;;23.80;95.90;;;;;;4992257;28;20512;-68
2023/07/30 11:15:42;;;;;;;5.43;4.87;;;23.80;94.80;;;;;;4991060;28;20438;-68
2023/07/30 11:18:08;;;;;;;3.77;3.57;;;23.70;94.40;;;;;;4989700;28;20188;-69
2023/07/30 11:20:34;;;;;;;5.83;4.23;;;23.60;95.60;;;;;;4991685;28;20830;-71
2023/07/30 11:23:00;;;;;;;4.70;3.57;;;23.60;97.40;;;;;;4992958;28;20411;-68
2023/07/30 11:25:25;;;;;;;3.83;3.60;;;23.60;95.00;;;;;;4990931;28;20180;-68
2023/07/30 11:27:51;;;;;;;4.97;3.63;;;23.70;98.20;;;;;;4992075;28;20187;-70
2023/07/30 11:30:18;;;;;;;3.93;3.47;;;23.80;96.70;;;;;;4990615;28;20693;-68
2023/07/30 11:32:47;;;;;;;3.57;2.90;;;23.90;96.70;;;;;;4991424;28;20561;-67
2023/07/30 11:35:14;;;;;;;5.50;4.37;;;24.00;93.80;;;;;;4983896;28;20426;-67
2023/07/30 11:37:42;;;;;;;5.27;4.77;;;24.00;95.30;;;;;;4991930;28;20888;-68
2023/07/30 11:40:11;;;;;;;3.90;3.60;;;24.00;94.60;;;;;;4990273;28;20450;-67
2023/07/30 11:42:37;;;;;;;150.83;123.13;;;24.00;94.60;;;;;;4991983;28;20426;-68
2023/07/30 11:45:23;;;;;;;156.03;139.03;;;23.90;92.50;;;;;;4991013;28;20425;-68
2023/07/30 11:47:49;;;;;;;5.97;5.30;;;23.80;94.80;;;;;;4976278;28;20780;-69
2023/07/30 11:50:15;;;;;;;8.70;3.90;;;23.70;94.00;;;;;;4993143;28;20461;-68
2023/07/30 11:52:57;;;;;;;5.97;4.60;;;23.60;95.30;;;;;;4993871;28;20455;-70
2023/07/30 11:55:26;;;;;;;8.13;6.30;;;23.50;94.10;;;;;;4993382;28;20438;-69
2023/07/30 11:57:52;;;;;;;15.20;12.10;;;23.20;93.50;;;;;;4986354;28;20407;-68
2023/07/30 12:00:21;;;;;;;4.20;3.40;;;23.10;97.30;;;;;;4992000;28;20582;-68
2023/07/30 12:02:47;;;;;;;4.43;3.50;;;22.90;96.10;;;;;;4991094;28;20179;-68
2023/07/30 12:05:12;;;;;;;5.77;5.20;;;22.80;96.60;;;;;;4992992;28;20404;-68
2023/07/30 12:07:43;;;;;;;5.63;4.57;;;22.80;99.90;;;;;;4993368;28;20531;-70
2023/07/30 12:10:13;;;;;;;6.37;4.13;;;22.90;99.90;;;;;;4989609;28;20214;-67
2023/07/30 12:12:46;;;;;;;6.73;6.03;;;23.00;99.90;;;;;;4991764;28;20403;-69
2023/07/30 12:15:12;;;;;;;6.10;5.13;;;22.90;99.00;;;;;;4990383;28;20433;-70
2023/07/30 12:17:39;;;;;;;5.30;4.80;;;22.70;98.60;;;;;;4988518;28;20433;-68
2023/07/30 12:20:09;;;;;;;4.80;3.60;;;22.50;99.90;;;;;;4989115;28;20423;-67
2023/07/30 12:22:35;;;;;;;4.97;3.40;;;22.50;98.00;;;;;;4992312;28;20425;-70
2023/07/30 12:25:03;;;;;;;5.90;5.40;;;22.30;99.50;;;;;;4992911;28;20411;-68
2023/07/30 12:27:29;;;;;;;10.90;5.40;;;22.30;99.90;;;;;;4976147;28;20487;-68
2023/07/30 12:29:55;;;;;;;10.10;4.50;;;22.30;99.90;;;;;;4993224;28;20462;-67
2023/07/30 12:32:21;;;;;;;3.20;3.00;;;22.20;99.80;;;;;;4992365;28;20415;-68
2023/07/30 12:34:47;;;;;;;5.87;3.33;;;22.30;99.90;;;;;;4993161;28;20168;-67
2023/07/30 12:37:13;;;;;;;5.20;4.77;;;22.30;99.50;;;;;;4990840;28;20505;-69
2023/07/30 12:39:38;;;;;;;4.63;3.83;;;22.30;99.90;;;;;;4992679;28;20266;-69
2023/07/30 12:42:04;;;;;;;3.60;3.10;;;22.20;99.90;;;;;;4992516;28;20175;-68
2023/07/30 12:44:30;;;;;;;4.60;2.90;;;22.10;99.50;;;;;;4990687;28;20184;-69